createdAt,value
2022-08-11T00:00:09.101Z,100.00
2022-08-11T00:00:55.418Z,100.00
2022-08-11T00:01:37.480Z,100.00
2022-08-11T00:02:18.414Z,100.00
2022-08-11T00:02:59.484Z,100.00
2022-08-11T00:03:42.493Z,100.00
2022-08-11T00:04:32.397Z,100.00
2022-08-11T00:05:19.935Z,100.00
2022-08-11T00:06:06.421Z,100.00
2022-08-11T00:06:44.518Z,100.00
2022-08-11T00:07:32.429Z,100.00
2022-08-11T00:08:13.455Z,100.00
2022-08-11T00:09:08.409Z,100.00
2022-08-11T00:10:02.397Z,100.00
2022-08-11T00:10:56.409Z,100.00
2022-08-11T00:12:07.428Z,100.00
2022-08-11T00:13:16.822Z,100.00
2022-08-11T00:14:11.405Z,100.00
2022-08-11T00:15:14.418Z,100.00
2022-08-11T00:16:08.408Z,100.00
2022-08-11T00:17:24.399Z,100.00
2022-08-11T00:18:18.447Z,100.00
2022-08-11T00:19:12.411Z,100.00
2022-08-11T00:20:14.592Z,100.00
2022-08-11T00:21:13.398Z,100.00
2022-08-11T00:22:09.523Z,100.00
2022-08-11T00:23:04.398Z,100.00
2022-08-11T00:23:59.410Z,100.00
2022-08-11T00:24:53.663Z,100.00
2022-08-11T00:25:36.417Z,100.00
2022-08-11T00:26:17.481Z,100.00
2022-08-11T00:27:00.388Z,100.00
2022-08-11T00:27:42.508Z,100.00
2022-08-11T00:28:39.399Z,100.00
2022-08-11T00:29:19.417Z,100.00
2022-08-11T00:30:01.504Z,100.00
2022-08-11T00:30:48.429Z,100.00
2022-08-11T00:31:37.510Z,100.00
2022-08-11T00:32:20.406Z,100.00
2022-08-11T00:33:02.488Z,100.00
2022-08-11T00:33:47.387Z,100.00
2022-08-11T00:34:41.476Z,100.00
2022-08-11T00:35:52.076Z,100.00
2022-08-11T00:36:30.370Z,100.00
2022-08-11T00:37:11.153Z,100.00
2022-08-11T00:38:03.423Z,100.00
2022-08-11T00:38:42.859Z,100.00
2022-08-11T00:39:34.499Z,100.00
2022-08-11T00:40:30.412Z,100.00
2022-08-11T00:41:21.510Z,100.00
2022-08-11T00:42:15.378Z,100.00
2022-08-11T00:43:30.444Z,100.00
2022-08-11T00:45:06.391Z,100.00
2022-08-11T00:45:59.407Z,100.00
2022-08-11T00:47:12.501Z,100.00
2022-08-11T00:48:48.379Z,100.00
2022-08-11T00:50:04.821Z,100.00
2022-08-11T00:51:13.422Z,100.00
2022-08-11T00:52:18.248Z,100.00
2022-08-11T00:53:26.390Z,100.00
2022-08-11T00:54:58.601Z,100.00
2022-08-11T00:56:29.399Z,100.00
2022-08-11T00:57:38.685Z,100.00
2022-08-11T00:58:44.374Z,100.00
2022-08-11T00:59:49.429Z,100.00
2022-08-11T01:00:39.449Z,100.00
2022-08-11T01:01:20.905Z,100.00
2022-08-11T01:02:59.377Z,100.00
2022-08-11T01:04:00.802Z,100.00
2022-08-11T01:05:12.074Z,100.00
2022-08-11T01:06:22.493Z,100.00
2022-08-11T01:08:02.155Z,100.00
2022-08-11T01:09:22.109Z,100.00
2022-08-11T01:10:15.440Z,100.00
2022-08-11T01:11:30.358Z,100.00
2022-08-11T01:12:16.455Z,100.00
2022-08-11T01:13:25.361Z,100.00
2022-08-11T01:15:01.379Z,100.00
2022-08-11T01:16:28.365Z,100.00
2022-08-11T01:17:42.388Z,100.00
2022-08-11T01:19:14.353Z,100.00
2022-08-11T01:20:50.393Z,100.00
2022-08-11T01:22:35.373Z,100.00
2022-08-11T01:23:47.356Z,100.00
2022-08-11T01:24:41.381Z,100.00
2022-08-11T01:26:11.364Z,100.00
2022-08-11T01:27:31.333Z,100.00
2022-08-11T01:28:53.340Z,100.00
2022-08-11T01:30:28.364Z,100.00
2022-08-11T01:32:03.402Z,100.00
2022-08-11T01:33:26.346Z,100.00
2022-08-11T01:34:57.318Z,100.00
2022-08-11T01:36:47.370Z,100.00
2022-08-11T01:38:11.426Z,100.00
2022-08-11T01:39:29.496Z,100.00
2022-08-11T01:40:54.331Z,100.00
2022-08-11T01:42:04.789Z,100.00
2022-08-11T01:43:37.385Z,100.00
2022-08-11T01:44:38.239Z,100.00
2022-08-11T01:45:33.328Z,100.00
2022-08-11T01:46:47.412Z,100.00
2022-08-11T01:47:57.321Z,100.00
2022-08-11T01:50:07.031Z,100.00
2022-08-11T01:50:56.354Z,100.00
2022-08-11T01:52:35.052Z,100.00
2022-08-11T01:54:05.311Z,100.00
2022-08-11T01:54:50.333Z,100.00
2022-08-11T01:55:55.103Z,100.00
2022-08-11T01:56:57.345Z,100.00
2022-08-11T01:57:57.399Z,100.00
2022-08-11T01:59:04.317Z,100.00
2022-08-11T02:00:05.333Z,100.00
2022-08-11T02:01:49.320Z,100.00
2022-08-11T02:03:28.326Z,100.00
2022-08-11T02:04:51.385Z,100.00
2022-08-11T02:06:29.339Z,100.00
2022-08-11T02:07:50.364Z,100.00
2022-08-11T02:08:54.321Z,100.00
2022-08-11T02:09:57.461Z,100.00
2022-08-11T02:11:20.356Z,100.00
2022-08-11T02:12:29.345Z,100.00
2022-08-11T02:13:42.406Z,100.00
2022-08-11T02:15:05.138Z,100.00
2022-08-11T02:15:46.777Z,100.00
2022-08-11T02:16:52.320Z,100.00
2022-08-11T02:17:49.333Z,100.00
2022-08-11T02:19:10.295Z,100.00
2022-08-11T02:21:07.286Z,100.00
2022-08-11T02:22:39.518Z,100.00
2022-08-11T02:24:06.786Z,100.00
2022-08-11T02:25:03.368Z,100.00
2022-08-11T02:26:02.297Z,100.00
2022-08-11T02:27:04.359Z,100.00
2022-08-11T02:28:03.313Z,100.00
2022-08-11T02:29:05.349Z,100.00
2022-08-11T02:30:28.301Z,100.00
2022-08-11T02:32:25.554Z,100.00
2022-08-11T02:33:41.281Z,100.00
2022-08-11T02:34:59.594Z,100.00
2022-08-11T02:35:42.821Z,100.00
2022-08-11T02:36:49.293Z,100.00
2022-08-11T02:37:38.383Z,100.00
2022-08-11T02:39:08.330Z,100.00
2022-08-11T02:40:00.374Z,100.00
2022-08-11T02:41:34.033Z,100.00
2022-08-11T02:42:33.475Z,100.00
2022-08-11T02:43:59.361Z,100.00
2022-08-11T02:45:06.296Z,100.00
2022-08-11T02:46:25.340Z,100.00
2022-08-11T02:47:22.268Z,100.00
2022-08-11T02:49:18.626Z,100.00
2022-08-11T02:50:10.301Z,100.00
2022-08-11T02:51:21.772Z,100.00
2022-08-11T02:52:17.271Z,100.00
2022-08-11T02:53:32.370Z,100.00
2022-08-11T02:54:50.279Z,100.00
2022-08-11T02:55:56.325Z,100.00
2022-08-11T02:56:58.414Z,100.00
2022-08-11T02:58:03.265Z,100.00
2022-08-11T02:59:08.289Z,100.00
2022-08-11T03:00:15.259Z,100.00
2022-08-11T03:01:18.380Z,100.00
2022-08-11T03:02:21.278Z,100.00
2022-08-11T03:03:44.256Z,100.00
2022-08-11T03:05:27.256Z,100.00
2022-08-11T03:06:49.267Z,100.00
2022-08-11T03:08:05.272Z,100.00
2022-08-11T03:09:16.280Z,100.00
2022-08-11T03:10:47.245Z,100.00
2022-08-11T03:12:53.577Z,100.00
2022-08-11T03:14:33.281Z,100.00
2022-08-11T03:15:54.262Z,100.00
2022-08-11T03:16:56.254Z,100.00
2022-08-11T03:18:13.276Z,100.00
2022-08-11T03:19:31.261Z,100.00
2022-08-11T03:20:59.260Z,100.00
2022-08-11T03:22:19.258Z,100.00
2022-08-11T03:23:47.305Z,100.00
2022-08-11T03:25:00.252Z,100.00
2022-08-11T03:26:29.237Z,100.00
2022-08-11T03:27:47.255Z,100.00
2022-08-11T03:29:18.177Z,100.00
2022-08-11T03:30:48.232Z,100.00
2022-08-11T03:31:51.250Z,100.00
2022-08-11T03:33:21.250Z,100.00
2022-08-11T03:34:23.280Z,100.00
2022-08-11T03:35:21.624Z,100.00
2022-08-11T03:36:33.772Z,100.00
2022-08-11T03:38:08.257Z,100.00
2022-08-11T03:39:17.259Z,100.00
2022-08-11T03:40:20.328Z,100.00
2022-08-11T03:42:01.726Z,100.00
2022-08-11T03:42:36.280Z,100.00
2022-08-11T03:44:19.312Z,100.00
2022-08-11T03:45:29.248Z,100.00
2022-08-11T03:46:45.410Z,100.00
2022-08-11T03:48:10.242Z,100.00
2022-08-11T03:49:36.310Z,100.00
2022-08-11T03:50:24.215Z,100.00
2022-08-11T03:51:51.443Z,100.00
2022-08-11T03:52:57.310Z,100.00
2022-08-11T03:54:18.212Z,100.00
2022-08-11T03:55:40.540Z,100.00
2022-08-11T03:56:42.211Z,100.00
2022-08-11T03:57:34.210Z,100.00
2022-08-11T03:59:23.219Z,100.00
2022-08-11T04:01:11.273Z,100.00
2022-08-11T04:02:29.322Z,100.00
2022-08-11T04:03:56.458Z,100.00
2022-08-11T04:05:20.188Z,100.00
2022-08-11T04:06:31.295Z,100.00
2022-08-11T04:07:45.251Z,100.00
2022-08-11T04:09:02.273Z,100.00
2022-08-11T04:10:31.189Z,100.00
2022-08-11T04:11:26.304Z,100.00
2022-08-11T04:12:36.067Z,100.00
2022-08-11T04:14:42.248Z,100.00
2022-08-11T04:16:15.197Z,100.00
2022-08-11T04:17:22.635Z,100.00
2022-08-11T04:18:46.227Z,100.00
2022-08-11T04:20:15.237Z,100.00
2022-08-11T04:21:20.202Z,100.00
2022-08-11T04:22:45.184Z,100.00
2022-08-11T04:24:38.325Z,100.00
2022-08-11T04:25:32.261Z,100.00
2022-08-11T04:26:59.198Z,100.00
2022-08-11T04:28:43.039Z,100.00
2022-08-11T04:30:05.557Z,100.00
2022-08-11T04:31:50.755Z,100.00
2022-08-11T04:32:46.276Z,100.00
2022-08-11T04:34:13.187Z,100.00
2022-08-11T04:35:26.308Z,100.00
2022-08-11T04:37:19.246Z,100.00
2022-08-11T04:38:38.257Z,100.00
2022-08-11T04:40:09.183Z,100.00
2022-08-11T04:41:21.350Z,100.00
2022-08-11T04:43:07.287Z,100.00
2022-08-11T04:44:33.237Z,100.00
2022-08-11T04:45:47.197Z,100.00
2022-08-11T04:47:34.212Z,100.00
2022-08-11T04:49:40.199Z,100.00
2022-08-11T04:51:22.655Z,100.00
2022-08-11T04:52:52.174Z,100.00
2022-08-11T04:54:06.048Z,100.00
2022-08-11T04:55:58.186Z,100.00
2022-08-11T04:56:59.007Z,100.00
2022-08-11T04:58:16.180Z,100.00
2022-08-11T05:00:20.899Z,100.00
2022-08-11T05:01:41.262Z,100.00
2022-08-11T05:03:04.486Z,100.00
2022-08-11T05:04:01.166Z,100.00
2022-08-11T05:05:22.041Z,100.00
2022-08-11T05:06:42.181Z,100.00
2022-08-11T05:08:23.412Z,100.00
2022-08-11T05:09:25.137Z,100.00
2022-08-11T05:10:20.248Z,100.00
2022-08-11T05:11:57.750Z,100.00
2022-08-11T05:13:28.969Z,100.00
2022-08-11T05:14:37.146Z,100.00
2022-08-11T05:15:50.964Z,100.00
2022-08-11T05:17:00.155Z,100.00
2022-08-11T05:18:03.879Z,100.00
2022-08-11T05:19:16.159Z,100.00
2022-08-11T05:20:15.814Z,100.00
2022-08-11T05:21:21.146Z,100.00
2022-08-11T05:22:29.250Z,100.00
2022-08-11T05:23:43.164Z,100.00
2022-08-11T05:25:02.149Z,100.00
2022-08-11T05:26:47.719Z,100.00
2022-08-11T05:27:49.181Z,100.00
2022-08-11T05:29:19.714Z,100.00
2022-08-11T05:30:39.141Z,100.00
2022-08-11T05:31:58.139Z,100.00
2022-08-11T05:33:14.155Z,100.00
2022-08-11T05:34:43.126Z,100.00
2022-08-11T05:36:01.649Z,100.00
2022-08-11T05:37:23.740Z,100.00
2022-08-11T05:38:27.409Z,100.00
2022-08-11T05:39:58.165Z,100.00
2022-08-11T05:41:10.119Z,100.00
2022-08-11T05:42:30.114Z,100.00
2022-08-11T05:44:20.175Z,100.00
2022-08-11T05:45:18.133Z,100.00
2022-08-11T05:46:38.116Z,100.00
2022-08-11T05:47:57.109Z,100.00
2022-08-11T05:49:10.130Z,100.00
2022-08-11T05:50:32.804Z,100.00
2022-08-11T05:51:54.564Z,100.00
2022-08-11T05:53:09.139Z,100.00
2022-08-11T05:54:29.650Z,100.00
2022-08-11T05:56:01.765Z,100.00
2022-08-11T05:57:48.663Z,100.00
2022-08-11T05:58:27.115Z,100.00
2022-08-11T05:59:31.130Z,100.00
2022-08-11T06:00:26.123Z,100.00
2022-08-11T06:01:21.152Z,100.00
2022-08-11T06:02:18.085Z,100.00
2022-08-11T06:03:17.125Z,100.00
2022-08-11T06:04:23.108Z,100.00
2022-08-11T06:05:05.137Z,100.00
2022-08-11T06:05:47.185Z,100.00
2022-08-11T06:06:33.096Z,100.00
2022-08-11T06:07:18.174Z,100.00
2022-08-11T06:08:01.086Z,100.00
2022-08-11T06:08:41.248Z,100.00
2022-08-11T06:09:22.110Z,100.00
2022-08-11T06:10:03.194Z,100.00
2022-08-11T06:10:47.129Z,100.00
2022-08-11T06:11:44.424Z,100.00
2022-08-11T06:12:42.111Z,100.00
2022-08-11T06:13:24.160Z,100.00
2022-08-11T06:14:05.089Z,100.00
2022-08-11T06:14:52.192Z,100.00
2022-08-11T06:15:33.093Z,100.00
2022-08-11T06:16:13.121Z,100.00
2022-08-11T06:16:49.625Z,100.00
2022-08-11T06:17:39.447Z,100.00
2022-08-11T06:18:18.177Z,100.00
2022-08-11T06:19:07.093Z,100.00
2022-08-11T06:19:57.161Z,100.00
2022-08-11T06:20:58.098Z,100.00
2022-08-11T06:21:39.101Z,100.00
2022-08-11T06:22:36.328Z,100.00
2022-08-11T06:23:32.091Z,100.00
2022-08-11T06:24:28.092Z,100.00
2022-08-11T06:25:24.078Z,100.00
2022-08-11T06:26:27.097Z,100.00
2022-08-11T06:27:12.885Z,100.00
2022-08-11T06:28:02.131Z,100.00
2022-08-11T06:28:46.070Z,100.00
2022-08-11T06:29:37.555Z,100.00
2022-08-11T06:30:21.098Z,100.00
2022-08-11T06:31:01.163Z,100.00
2022-08-11T06:31:42.098Z,100.00
2022-08-11T06:32:23.100Z,100.00
2022-08-11T06:32:59.171Z,100.00
2022-08-11T06:33:57.084Z,100.00
2022-08-11T06:34:42.194Z,100.00
2022-08-11T06:35:55.096Z,100.00
2022-08-11T06:37:04.165Z,100.00
2022-08-11T06:38:02.100Z,100.00
2022-08-11T06:39:13.185Z,100.00
2022-08-11T06:40:08.070Z,100.00
2022-08-11T06:41:27.994Z,100.00
2022-08-11T06:42:17.088Z,100.00
2022-08-11T06:43:44.103Z,100.00
2022-08-11T06:45:36.078Z,100.00
2022-08-11T06:46:49.081Z,100.00
2022-08-11T06:47:43.068Z,100.00
2022-08-11T06:48:38.101Z,100.00
2022-08-11T06:49:40.167Z,100.00
2022-08-11T06:51:04.701Z,100.00
2022-08-11T06:51:47.078Z,100.00
2022-08-11T06:52:42.565Z,100.00
2022-08-11T06:53:26.062Z,100.00
2022-08-11T06:54:12.024Z,100.00
2022-08-11T06:55:04.107Z,100.00
2022-08-11T06:56:06.425Z,100.00
2022-08-11T06:57:28.857Z,100.00
2022-08-11T06:58:25.865Z,100.00
2022-08-11T06:59:26.060Z,100.00
2022-08-11T07:00:33.429Z,100.00
2022-08-11T07:01:31.093Z,100.00
2022-08-11T07:02:34.387Z,100.00
2022-08-11T07:03:32.049Z,100.00
2022-08-11T07:04:35.052Z,100.00
2022-08-11T07:06:10.074Z,100.00
2022-08-11T07:07:45.035Z,100.00
2022-08-11T07:09:30.044Z,100.00
2022-08-11T07:11:19.061Z,100.00
2022-08-11T07:12:33.077Z,100.00
2022-08-11T07:13:47.036Z,100.00
2022-08-11T07:15:06.068Z,100.00
2022-08-11T07:16:12.315Z,99.60
2022-08-11T07:16:57.094Z,100.00
2022-08-11T07:17:39.187Z,99.76
2022-08-11T07:18:51.060Z,100.00
2022-08-11T07:19:56.858Z,98.74
2022-08-11T07:21:01.745Z,98.36
2022-08-11T07:22:15.089Z,97.18
2022-08-11T07:23:31.073Z,95.64
2022-08-11T07:25:01.279Z,95.59
2022-08-11T07:26:22.057Z,94.60
2022-08-11T07:27:47.092Z,95.47
2022-08-11T07:29:02.070Z,95.47
2022-08-11T07:29:57.037Z,95.59
2022-08-11T07:30:56.039Z,95.53
2022-08-11T07:32:00.028Z,95.63
2022-08-11T07:33:11.049Z,94.13
2022-08-11T07:34:39.048Z,93.88
2022-08-11T07:35:50.037Z,93.14
2022-08-11T07:36:45.038Z,92.52
2022-08-11T07:37:40.054Z,91.79
2022-08-11T07:38:50.074Z,92.33
2022-08-11T07:39:30.436Z,90.55
2022-08-11T07:40:18.030Z,90.10
2022-08-11T07:40:53.116Z,89.86
2022-08-11T07:41:42.045Z,89.44
2022-08-11T07:42:22.596Z,88.82
2022-08-11T07:43:12.080Z,88.23
2022-08-11T07:43:57.100Z,86.69
2022-08-11T07:45:12.026Z,87.65
2022-08-11T07:46:24.129Z,87.22
2022-08-11T07:47:41.566Z,85.15
2022-08-11T07:48:56.041Z,86.09
2022-08-11T07:49:58.025Z,85.11
2022-08-11T07:50:56.569Z,84.42
2022-08-11T07:51:56.020Z,84.12
2022-08-11T07:52:40.548Z,85.31
2022-08-11T07:53:22.015Z,85.41
2022-08-11T07:54:16.831Z,85.24
2022-08-11T07:55:51.180Z,83.65
2022-08-11T07:57:07.295Z,84.86
2022-08-11T07:58:24.985Z,84.20
2022-08-11T08:00:02.713Z,83.91
2022-08-11T08:01:27.084Z,82.85
2022-08-11T08:02:44.613Z,81.84
2022-08-11T08:03:57.048Z,82.02
2022-08-11T08:05:10.048Z,81.23
2022-08-11T08:06:36.235Z,81.30
2022-08-11T08:07:54.019Z,80.37
2022-08-11T08:09:09.038Z,80.84
2022-08-11T08:10:22.088Z,80.37
2022-08-11T08:11:35.044Z,80.26
2022-08-11T08:12:47.995Z,80.30
2022-08-11T08:14:00.011Z,80.21
2022-08-11T08:15:12.009Z,78.65
2022-08-11T08:16:14.015Z,79.39
2022-08-11T08:17:12.689Z,77.93
2022-08-11T08:18:09.568Z,77.93
2022-08-11T08:19:18.985Z,78.43
2022-08-11T08:20:14.039Z,77.29
2022-08-11T08:21:18.036Z,76.47
2022-08-11T08:22:38.126Z,76.38
2022-08-11T08:23:38.992Z,77.53
2022-08-11T08:24:35.005Z,77.64
2022-08-11T08:25:30.019Z,76.94
2022-08-11T08:26:48.319Z,75.48
2022-08-11T08:27:50.024Z,75.90
2022-08-11T08:28:45.997Z,75.99
2022-08-11T08:30:03.989Z,75.53
2022-08-11T08:30:59.006Z,74.95
2022-08-11T08:31:53.013Z,74.59
2022-08-11T08:32:48.220Z,74.49
2022-08-11T08:33:44.992Z,75.14
2022-08-11T08:34:39.047Z,75.18
2022-08-11T08:35:33.979Z,74.21
2022-08-11T08:36:28.006Z,74.08
2022-08-11T08:37:15.732Z,73.72
2022-08-11T08:38:10.047Z,73.74
2022-08-11T08:39:03.024Z,73.72
2022-08-11T08:39:38.149Z,73.39
2022-08-11T08:40:25.988Z,74.00
2022-08-11T08:41:01.058Z,73.93
2022-08-11T08:41:49.982Z,73.92
2022-08-11T08:42:44.428Z,73.94
2022-08-11T08:43:48.543Z,73.67
2022-08-11T08:44:46.046Z,73.60
2022-08-11T08:45:41.010Z,72.59
2022-08-11T08:46:45.043Z,73.52
2022-08-11T08:47:43.155Z,73.19
2022-08-11T08:48:40.026Z,72.82
2022-08-11T08:49:40.994Z,73.30
2022-08-11T08:50:55.967Z,73.39
2022-08-11T08:52:02.501Z,71.77
2022-08-11T08:53:08.008Z,71.68
2022-08-11T08:53:52.453Z,72.14
2022-08-11T08:54:45.017Z,72.16
2022-08-11T08:55:25.053Z,72.58
2022-08-11T08:56:14.960Z,71.79
2022-08-11T08:56:56.054Z,72.34
2022-08-11T08:57:44.049Z,72.83
2022-08-11T08:58:26.060Z,72.37
2022-08-11T08:59:20.988Z,71.68
2022-08-11T09:00:22.503Z,72.01
2022-08-11T09:01:19.041Z,72.62
2022-08-11T09:02:33.516Z,72.65
2022-08-11T09:04:05.098Z,72.83
2022-08-11T09:04:42.959Z,71.26
2022-08-11T09:05:36.983Z,69.94
2022-08-11T09:06:36.983Z,70.18
2022-08-11T09:07:38.882Z,69.96
2022-08-11T09:08:36.107Z,70.64
2022-08-11T09:09:30.965Z,70.52
2022-08-11T09:10:25.965Z,70.06
2022-08-11T09:11:37.975Z,68.90
2022-08-11T09:12:38.267Z,68.84
2022-08-11T09:13:32.952Z,68.37
2022-08-11T09:14:15.189Z,68.92
2022-08-11T09:15:06.042Z,68.62
2022-08-11T09:15:51.984Z,69.25
2022-08-11T09:16:36.073Z,68.07
2022-08-11T09:17:16.957Z,68.26
2022-08-11T09:18:06.172Z,68.01
2022-08-11T09:18:50.952Z,68.52
2022-08-11T09:19:38.983Z,68.22
2022-08-11T09:20:26.042Z,68.47
2022-08-11T09:21:13.949Z,67.69
2022-08-11T09:22:07.691Z,66.92
2022-08-11T09:24:31.722Z,67.45
2022-08-11T09:25:33.988Z,67.44
2022-08-11T09:26:33.871Z,66.69
2022-08-11T09:27:14.951Z,66.82
2022-08-11T09:27:56.555Z,66.44
2022-08-11T09:28:37.948Z,65.96
2022-08-11T09:29:19.023Z,65.60
2022-08-11T09:29:59.946Z,66.10
2022-08-11T09:30:47.002Z,66.24
2022-08-11T09:31:44.980Z,66.49
2022-08-11T09:32:39.955Z,66.05
2022-08-11T09:33:35.953Z,65.29
2022-08-11T09:34:29.962Z,65.30
2022-08-11T09:35:24.962Z,65.40
2022-08-11T09:36:32.968Z,65.73
2022-08-11T09:37:53.309Z,64.96
2022-08-11T09:38:52.966Z,63.25
2022-08-11T09:39:45.584Z,63.61
2022-08-11T09:40:35.947Z,64.42
2022-08-11T09:41:16.040Z,64.13
2022-08-11T09:42:02.739Z,63.56
2022-08-11T09:43:02.503Z,63.26
2022-08-11T09:44:07.945Z,62.16
2022-08-11T09:44:52.751Z,62.74
2022-08-11T09:45:40.504Z,62.86
2022-08-11T09:46:21.021Z,63.70
2022-08-11T09:47:05.972Z,64.19
2022-08-11T09:47:46.049Z,63.71
2022-08-11T09:48:28.938Z,62.99
2022-08-11T09:49:10.012Z,62.63
2022-08-11T09:49:51.921Z,62.62
2022-08-11T09:50:32.064Z,62.65
2022-08-11T09:51:14.947Z,62.39
2022-08-11T09:52:04.899Z,61.99
2022-08-11T09:53:03.829Z,62.39
2022-08-11T09:54:03.704Z,62.19
2022-08-11T09:54:48.196Z,62.03
2022-08-11T09:55:28.999Z,61.77
2022-08-11T09:56:30.907Z,62.14
2022-08-11T09:57:30.606Z,61.91
2022-08-11T09:58:42.081Z,62.75
2022-08-11T09:59:21.032Z,62.75
2022-08-11T10:00:12.859Z,62.34
2022-08-11T10:00:56.057Z,62.50
2022-08-11T10:02:06.934Z,60.31
2022-08-11T10:02:54.529Z,60.69
2022-08-11T10:03:40.138Z,61.07
2022-08-11T10:04:34.957Z,61.07
2022-08-11T10:05:34.017Z,61.89
2022-08-11T10:06:34.250Z,61.51
2022-08-11T10:07:16.940Z,61.48
2022-08-11T10:07:58.091Z,60.94
2022-08-11T10:08:42.944Z,60.63
2022-08-11T10:09:27.209Z,60.58
2022-08-11T10:10:08.972Z,60.26
2022-08-11T10:10:49.080Z,59.71
2022-08-11T10:11:30.943Z,59.65
2022-08-11T10:12:29.623Z,59.49
2022-08-11T10:14:31.496Z,58.29
2022-08-11T10:14:39.098Z,58.96
2022-08-11T10:15:37.345Z,59.24
2022-08-11T10:16:23.913Z,59.75
2022-08-11T10:16:58.002Z,58.99
2022-08-11T10:18:10.943Z,59.00
2022-08-11T10:18:53.072Z,58.47
2022-08-11T10:19:19.404Z,58.84
2022-08-11T10:20:05.496Z,58.98
2022-08-11T10:20:44.010Z,58.56
2022-08-11T10:22:08.002Z,57.89
2022-08-11T10:23:07.934Z,57.73
2022-08-11T10:24:05.753Z,57.99
2022-08-11T10:25:00.923Z,57.99
2022-08-11T10:25:59.973Z,58.01
2022-08-11T10:26:55.399Z,57.74
2022-08-11T10:28:09.040Z,56.96
2022-08-11T10:28:44.762Z,56.63
2022-08-11T10:29:44.249Z,56.69
2022-08-11T10:30:37.396Z,57.54
2022-08-11T10:31:45.114Z,57.70
2022-08-11T10:32:58.549Z,57.03
2022-08-11T10:33:59.013Z,57.20
2022-08-11T10:34:40.938Z,56.63
2022-08-11T10:35:27.035Z,55.57
2022-08-11T10:36:01.597Z,56.28
2022-08-11T10:36:51.973Z,56.84
2022-08-11T10:38:15.829Z,56.88
2022-08-11T10:38:29.089Z,56.31
2022-08-11T10:39:11.956Z,56.54
2022-08-11T10:39:50.069Z,56.58
2022-08-11T10:40:23.964Z,56.54
2022-08-11T10:41:24.058Z,57.06
2022-08-11T10:42:35.348Z,57.17
2022-08-11T10:44:01.458Z,56.31
2022-08-11T10:44:26.928Z,57.02
2022-08-11T10:45:02.096Z,56.14
2022-08-11T10:46:14.012Z,55.59
2022-08-11T10:47:07.260Z,56.77
2022-08-11T10:47:49.728Z,56.66
2022-08-11T10:48:23.942Z,56.37
2022-08-11T10:48:59.120Z,56.26
2022-08-11T10:49:39.961Z,56.13
2022-08-11T10:50:37.695Z,56.06
2022-08-11T10:51:14.666Z,56.26
2022-08-11T10:52:14.995Z,56.62
2022-08-11T10:53:21.001Z,56.19
2022-08-11T10:54:13.514Z,55.63
2022-08-11T10:55:18.924Z,55.86
2022-08-11T10:56:11.479Z,55.60
2022-08-11T10:57:19.952Z,55.77
2022-08-11T10:58:13.505Z,56.28
2022-08-11T10:58:58.459Z,56.69
2022-08-11T10:59:35.231Z,55.85
2022-08-11T11:00:15.074Z,55.47
2022-08-11T11:00:57.014Z,55.06
2022-08-11T11:01:53.976Z,54.33
2022-08-11T11:02:28.265Z,54.13
2022-08-11T11:03:22.788Z,54.30
2022-08-11T11:04:17.979Z,54.39
2022-08-11T11:05:17.052Z,54.94
2022-08-11T11:06:27.923Z,54.98
2022-08-11T11:07:11.774Z,54.51
2022-08-11T11:08:31.893Z,54.96
2022-08-11T11:09:11.500Z,55.13
2022-08-11T11:09:56.928Z,55.33
2022-08-11T11:10:30.962Z,55.09
2022-08-11T11:11:06.942Z,55.03
2022-08-11T11:12:14.893Z,54.87
2022-08-11T11:13:13.754Z,53.88
2022-08-11T11:14:09.885Z,54.66
2022-08-11T11:15:09.901Z,54.08
2022-08-11T11:16:12.746Z,53.96
2022-08-11T11:17:05.574Z,54.72
2022-08-11T11:18:03.865Z,54.23
2022-08-11T11:18:45.192Z,53.79
2022-08-11T11:19:44.860Z,53.66
2022-08-11T11:20:42.561Z,53.44
2022-08-11T11:21:20.857Z,53.21
2022-08-11T11:22:28.955Z,53.61
2022-08-11T11:23:07.187Z,53.64
2022-08-11T11:24:17.888Z,54.50
2022-08-11T11:25:04.426Z,54.69
2022-08-11T11:26:13.889Z,55.02
2022-08-11T11:27:01.073Z,55.41
2022-08-11T11:27:59.879Z,55.00
2022-08-11T11:28:59.609Z,54.96
2022-08-11T11:30:18.863Z,54.85
2022-08-11T11:31:42.906Z,55.17
2022-08-11T11:32:45.334Z,54.82
2022-08-11T11:34:06.600Z,54.98
2022-08-11T11:35:21.017Z,54.72
2022-08-11T11:36:20.872Z,54.53
2022-08-11T11:37:05.892Z,54.67
2022-08-11T11:37:41.069Z,53.97
2022-08-11T11:38:34.799Z,53.99
2022-08-11T11:39:15.935Z,53.90
2022-08-11T11:39:51.057Z,54.45
2022-08-11T11:40:30.578Z,54.12
2022-08-11T11:41:30.865Z,54.88
2022-08-11T11:42:20.912Z,54.34
2022-08-11T11:42:57.142Z,54.90
2022-08-11T11:43:43.876Z,55.05
2022-08-11T11:44:17.950Z,54.93
2022-08-11T11:45:05.871Z,54.68
2022-08-11T11:45:41.787Z,54.25
2022-08-11T11:46:30.867Z,53.74
2022-08-11T11:47:05.922Z,54.08
2022-08-11T11:47:46.879Z,54.05
2022-08-11T11:48:28.619Z,54.07
2022-08-11T11:49:10.724Z,54.87
2022-08-11T11:49:57.858Z,54.22
2022-08-11T11:50:44.229Z,54.22
2022-08-11T11:51:18.946Z,54.11
2022-08-11T11:51:59.866Z,53.41
2022-08-11T11:52:34.079Z,52.92
2022-08-11T11:53:16.884Z,53.21
2022-08-11T11:53:58.970Z,52.68
2022-08-11T11:54:40.979Z,52.22
2022-08-11T11:56:03.880Z,51.98
2022-08-11T11:56:45.547Z,52.78
2022-08-11T11:57:59.190Z,51.89
2022-08-11T11:58:58.890Z,52.11
2022-08-11T11:59:53.746Z,52.29
2022-08-11T12:00:48.225Z,52.29
2022-08-11T12:01:31.891Z,51.96
2022-08-11T12:02:11.951Z,51.56
2022-08-11T12:02:46.759Z,52.00
2022-08-11T12:03:27.900Z,51.76
2022-08-11T12:04:12.894Z,51.77
2022-08-11T12:04:51.069Z,51.38
2022-08-11T12:05:39.885Z,51.73
2022-08-11T12:06:15.101Z,51.03
2022-08-11T12:07:23.860Z,51.24
2022-08-11T12:08:16.115Z,50.77
2022-08-11T12:09:08.920Z,51.58
2022-08-11T12:09:48.925Z,52.16
2022-08-11T12:10:30.022Z,51.41
2022-08-11T12:11:31.856Z,51.00
2022-08-11T12:12:31.734Z,51.43
2022-08-11T12:13:31.980Z,50.38
2022-08-11T12:14:13.953Z,50.42
2022-08-11T12:14:53.881Z,49.98
2022-08-11T12:16:31.415Z,49.82
2022-08-11T12:16:36.730Z,50.05
2022-08-11T12:17:16.910Z,50.33
2022-08-11T12:17:57.834Z,49.70
2022-08-11T12:18:40.970Z,48.91
2022-08-11T12:19:24.842Z,49.39
2022-08-11T12:20:32.146Z,49.24
2022-08-11T12:21:07.262Z,49.02
2022-08-11T12:22:12.906Z,49.42
2022-08-11T12:23:06.016Z,48.75
2022-08-11T12:24:11.828Z,48.57
2022-08-11T12:25:04.671Z,48.85
2022-08-11T12:26:25.910Z,49.34
2022-08-11T12:27:18.110Z,49.13
2022-08-11T12:27:55.468Z,49.62
2022-08-11T12:28:37.838Z,49.42
2022-08-11T12:29:14.889Z,49.37
2022-08-11T12:30:00.605Z,48.71
2022-08-11T12:31:32.882Z,48.03
2022-08-11T12:32:07.940Z,48.56
2022-08-11T12:32:56.816Z,48.81
2022-08-11T12:33:30.586Z,48.94
2022-08-11T12:34:30.820Z,48.67
2022-08-11T12:35:06.015Z,49.35
2022-08-11T12:36:01.271Z,49.06
2022-08-11T12:36:45.843Z,49.72
2022-08-11T12:37:36.966Z,50.12
2022-08-11T12:38:17.825Z,49.89
2022-08-11T12:39:24.406Z,50.07
2022-08-11T12:41:12.007Z,49.86
2022-08-11T12:42:08.842Z,50.13
2022-08-11T12:43:20.630Z,49.65
2022-08-11T12:44:26.812Z,49.82
2022-08-11T12:45:22.612Z,49.07
2022-08-11T12:46:12.830Z,49.03
2022-08-11T12:46:47.151Z,49.60
2022-08-11T12:48:07.962Z,49.07
2022-08-11T12:49:30.814Z,49.20
2022-08-11T12:50:43.808Z,49.20
2022-08-11T12:52:11.424Z,48.72
2022-08-11T12:53:08.845Z,49.39
2022-08-11T12:54:31.822Z,48.83
2022-08-11T12:56:03.575Z,49.80
2022-08-11T12:57:36.613Z,49.27
2022-08-11T12:58:24.843Z,49.47
2022-08-11T12:59:18.489Z,49.66
2022-08-11T13:00:25.825Z,49.96
2022-08-11T13:01:18.276Z,49.15
2022-08-11T13:02:23.797Z,49.19
2022-08-11T13:03:21.418Z,49.11
2022-08-11T13:04:21.847Z,49.65
2022-08-11T13:05:02.018Z,49.67
2022-08-11T13:05:45.031Z,49.76
2022-08-11T13:06:29.895Z,49.89
2022-08-11T13:07:11.823Z,49.99
2022-08-11T13:07:53.940Z,49.86
2022-08-11T13:08:36.794Z,49.82
2022-08-11T13:09:18.861Z,50.21
2022-08-11T13:09:59.881Z,50.07
2022-08-11T13:10:59.642Z,50.37
2022-08-11T13:11:58.796Z,50.52